createdAt,value
2019-04-20T00:01:38.768Z,4.00
2019-04-20T00:04:10.807Z,4.33
2019-04-20T00:06:41.708Z,4.23
2019-04-20T00:09:11.832Z,4.27
2019-04-20T00:11:47.596Z,4.93
2019-04-20T00:14:10.326Z,4.53
2019-04-20T00:16:31.746Z,4.30
2019-04-20T00:19:01.602Z,4.40
2019-04-20T00:21:49.649Z,4.10
2019-04-20T00:24:24.810Z,4.40
2019-04-20T00:27:20.723Z,4.20
2019-04-20T00:29:35.706Z,4.60
2019-04-20T00:31:58.397Z,4.30
2019-04-20T00:34:21.095Z,4.30
2019-04-20T00:36:41.487Z,4.50
2019-04-20T00:39:11.372Z,4.43
2019-04-20T00:41:43.814Z,4.43
2019-04-20T00:44:13.298Z,4.43
2019-04-20T00:46:49.792Z,4.27
2019-04-20T00:49:22.879Z,4.77
2019-04-20T00:51:51.105Z,4.07
2019-04-20T00:54:03.640Z,5.33
2019-04-20T00:56:30.986Z,4.37
2019-04-20T00:59:09.178Z,4.47
2019-04-20T01:01:47.486Z,4.60
2019-04-20T01:04:15.360Z,4.30
2019-04-20T01:06:46.758Z,4.43
2019-04-20T01:09:05.486Z,3.87
2019-04-20T01:11:39.498Z,4.37
2019-04-20T01:14:05.986Z,4.30
2019-04-20T01:16:38.669Z,4.40
2019-04-20T01:18:59.036Z,4.47
2019-04-20T01:21:28.818Z,4.70
2019-04-20T01:23:59.929Z,4.67
2019-04-20T01:26:24.866Z,4.33
2019-04-20T01:29:06.277Z,3.90
2019-04-20T01:31:29.322Z,4.43
2019-04-20T01:33:58.796Z,4.87
2019-04-20T01:36:37.058Z,4.90
2019-04-20T01:39:02.970Z,4.23
2019-04-20T01:41:18.143Z,4.43
2019-04-20T01:43:46.123Z,4.43
2019-04-20T01:46:18.271Z,4.30
2019-04-20T01:48:43.412Z,4.47
2019-04-20T01:51:17.510Z,4.13
2019-04-20T01:54:02.233Z,4.30
2019-04-20T01:56:27.638Z,4.60
2019-04-20T01:59:18.739Z,4.27
2019-04-20T02:02:04.059Z,4.67
2019-04-20T02:04:48.921Z,4.93
2019-04-20T02:07:18.493Z,4.30
2019-04-20T02:09:50.345Z,4.20
2019-04-20T02:12:18.912Z,4.87
2019-04-20T02:14:48.445Z,4.40
2019-04-20T02:17:25.118Z,4.37
2019-04-20T02:20:00.914Z,4.53
2019-04-20T02:22:23.156Z,4.43
2019-04-20T02:24:37.470Z,5.00
2019-04-20T02:27:06.205Z,4.77
2019-04-20T02:29:56.772Z,4.43
2019-04-20T02:32:26.561Z,4.67
2019-04-20T02:35:40.433Z,4.90
2019-04-20T02:40:45.219Z,4.60
2019-04-20T02:43:15.108Z,4.30
2019-04-20T02:45:33.361Z,4.40
2019-04-20T02:53:15.595Z,4.60
2019-04-20T02:55:26.688Z,4.53
2019-04-20T03:00:22.040Z,4.50
2019-04-20T03:02:34.581Z,4.40
2019-04-20T03:05:02.627Z,4.43
2019-04-20T03:07:31.459Z,4.27
2019-04-20T03:10:06.554Z,3.80
2019-04-20T03:12:38.903Z,4.33
2019-04-20T03:14:58.570Z,4.40
2019-04-20T03:17:32.649Z,5.03
2019-04-20T03:19:53.678Z,4.43
2019-04-20T03:23:01.038Z,4.73
2019-04-20T03:25:06.170Z,4.00
2019-04-20T03:27:36.823Z,4.90
2019-04-20T03:33:12.370Z,4.67
2019-04-20T03:35:52.758Z,4.10
2019-04-20T03:38:01.687Z,4.37
2019-04-20T03:40:21.568Z,5.17
2019-04-20T03:42:35.334Z,4.47
2019-04-20T03:45:07.571Z,4.80
2019-04-20T03:47:43.736Z,4.40
2019-04-20T03:50:24.441Z,4.63
2019-04-20T03:53:13.016Z,4.30
2019-04-20T03:56:14.047Z,4.23
2019-04-20T03:58:44.113Z,4.70
2019-04-20T04:01:37.469Z,4.07
2019-04-20T04:04:06.657Z,4.60
2019-04-20T04:06:23.482Z,4.30
2019-04-20T04:08:55.918Z,4.60
2019-04-20T04:11:26.209Z,4.40
2019-04-20T04:13:37.739Z,4.07
2019-04-20T04:16:10.131Z,4.80
2019-04-20T04:18:40.296Z,4.40
2019-04-20T04:21:08.360Z,5.30
2019-04-20T04:23:52.889Z,4.87
2019-04-20T04:26:17.289Z,5.10
2019-04-20T04:28:43.820Z,4.30
2019-04-20T04:31:33.379Z,4.53
2019-04-20T04:36:10.094Z,4.10
2019-04-20T04:38:47.559Z,4.53
2019-04-20T04:41:19.963Z,4.20
2019-04-20T04:43:39.994Z,4.50
2019-04-20T04:45:51.421Z,4.77
2019-04-20T04:48:25.198Z,4.73
2019-04-20T04:50:54.505Z,4.77
2019-04-20T04:53:27.213Z,4.37
2019-04-20T04:55:52.871Z,4.77
2019-04-20T04:58:14.881Z,4.40
2019-04-20T05:00:42.623Z,4.60
2019-04-20T05:03:27.004Z,4.03
2019-04-20T05:06:03.535Z,4.30
2019-04-20T05:08:23.402Z,5.03
2019-04-20T05:10:43.585Z,4.47
2019-04-20T05:13:11.343Z,4.60
2019-04-20T05:15:57.038Z,4.70
2019-04-20T05:18:34.789Z,4.83
2019-04-20T05:20:58.911Z,5.07
2019-04-20T05:23:24.251Z,4.80
2019-04-20T05:26:30.990Z,5.30
2019-04-20T05:28:55.630Z,5.40
2019-04-20T05:31:16.873Z,4.70
2019-04-20T05:34:08.090Z,5.60
2019-04-20T05:36:37.425Z,5.20
2019-04-20T05:39:10.347Z,4.80
2019-04-20T05:41:26.523Z,5.10
2019-04-20T05:43:59.463Z,5.23
2019-04-20T05:46:30.847Z,5.43
2019-04-20T05:49:03.128Z,5.30
2019-04-20T05:51:38.288Z,5.20
2019-04-20T05:53:59.221Z,5.57
2019-04-20T05:56:30.687Z,5.70
2019-04-20T05:58:57.964Z,5.27
2019-04-20T06:01:25.040Z,5.03
2019-04-20T06:03:55.457Z,5.67
2019-04-20T06:06:22.110Z,5.50
2019-04-20T06:08:59.998Z,5.70
2019-04-20T06:11:24.105Z,5.20
2019-04-20T06:14:05.005Z,5.33
2019-04-20T06:17:04.867Z,5.00
2019-04-20T06:19:31.995Z,4.77
2019-04-20T06:22:12.721Z,5.00
2019-04-20T06:24:47.845Z,4.97
2019-04-20T06:27:12.685Z,5.00
2019-04-20T06:29:34.818Z,5.30
2019-04-20T06:32:17.521Z,5.50
2019-04-20T06:37:18.452Z,5.85
2019-04-20T06:47:16.460Z,4.78
2019-04-20T06:55:36.870Z,5.55
2019-04-20T06:57:54.744Z,5.15
2019-04-20T07:02:42.358Z,4.62
2019-04-20T07:05:15.698Z,4.90
2019-04-20T07:07:41.876Z,5.00
2019-04-20T07:10:13.378Z,4.78
2019-04-20T07:12:33.063Z,5.25
2019-04-20T07:14:55.605Z,4.70
2019-04-20T07:17:45.855Z,4.58
2019-04-20T07:20:51.627Z,5.35
2019-04-20T07:23:21.356Z,5.12
2019-04-20T07:25:43.363Z,4.80
2019-04-20T07:28:15.183Z,4.58
2019-04-20T07:30:35.426Z,4.80
2019-04-20T07:33:06.882Z,5.12
2019-04-20T07:35:35.724Z,4.67
2019-04-20T07:40:34.786Z,3.77
2019-04-20T07:43:08.130Z,4.90
2019-04-20T07:45:29.573Z,4.40
2019-04-20T07:48:04.177Z,4.22
2019-04-20T07:50:21.736Z,4.58
2019-04-20T07:52:46.559Z,4.47
2019-04-20T07:55:40.518Z,4.47
2019-04-20T07:57:47.143Z,4.28
2019-04-20T08:00:35.539Z,4.50
2019-04-20T08:03:18.535Z,4.22
2019-04-20T08:05:57.275Z,4.20
2019-04-20T08:08:30.442Z,4.90
2019-04-20T08:10:59.589Z,4.03
2019-04-20T08:16:00.901Z,3.83
2019-04-20T08:18:36.129Z,4.00
2019-04-20T08:20:58.140Z,4.85
2019-04-20T08:23:38.843Z,4.35
2019-04-20T08:25:47.361Z,4.12
2019-04-20T08:28:23.305Z,4.90
2019-04-20T08:31:18.301Z,4.30
2019-04-20T08:34:03.287Z,4.35
2019-04-20T08:36:25.759Z,5.10
2019-04-20T08:41:18.205Z,4.17
2019-04-20T08:44:18.578Z,4.33
2019-04-20T08:46:22.037Z,4.45
2019-04-20T08:48:47.953Z,4.12
2019-04-20T08:51:13.111Z,3.60
2019-04-20T08:53:50.717Z,4.60
2019-04-20T08:56:08.110Z,4.30
2019-04-20T08:58:22.557Z,5.00
2019-04-20T09:00:57.631Z,4.45
2019-04-20T09:03:25.407Z,4.80
2019-04-20T09:05:59.133Z,4.50
2019-04-20T09:08:23.933Z,4.53
2019-04-20T09:11:03.412Z,4.75
2019-04-20T09:13:25.987Z,4.70
2019-04-20T09:15:43.035Z,4.67
2019-04-20T09:18:43.299Z,5.08
2019-04-20T09:21:15.152Z,4.92
2019-04-20T09:23:45.936Z,4.92
2019-04-20T09:26:24.099Z,4.55
2019-04-20T09:28:54.662Z,5.33
2019-04-20T09:31:43.316Z,5.03
2019-04-20T09:34:20.259Z,4.58
2019-04-20T09:36:50.047Z,5.55
2019-04-20T09:39:27.149Z,5.12
2019-04-20T09:42:00.646Z,5.20
2019-04-20T09:44:25.623Z,5.28
2019-04-20T09:46:53.340Z,4.92
2019-04-20T09:49:30.693Z,4.95
2019-04-20T09:52:01.468Z,5.58
2019-04-20T09:54:45.338Z,5.12
2019-04-20T09:57:03.265Z,4.83
2019-04-20T09:59:33.164Z,4.92
2019-04-20T10:01:46.826Z,5.20
2019-04-20T10:04:11.060Z,5.30
2019-04-20T10:06:39.378Z,5.10
2019-04-20T10:09:07.338Z,5.65
2019-04-20T10:11:35.192Z,6.33
2019-04-20T10:14:03.918Z,5.22
2019-04-20T10:16:31.510Z,4.53
2019-04-20T10:18:58.833Z,5.42
2019-04-20T10:21:25.903Z,5.20
2019-04-20T10:23:52.958Z,5.28
2019-04-20T10:26:20.611Z,5.50
2019-04-20T10:28:47.725Z,6.20
2019-04-20T10:31:14.832Z,5.40
2019-04-20T10:33:41.813Z,5.55
2019-04-20T10:36:19.513Z,5.65
2019-04-20T10:38:46.594Z,4.97
2019-04-20T10:41:22.029Z,4.80
2019-04-20T10:43:42.874Z,4.87
2019-04-20T10:46:11.054Z,5.42
2019-04-20T10:48:45.292Z,5.12
2019-04-20T10:51:08.246Z,5.50
2019-04-20T10:53:36.612Z,5.15
2019-04-20T10:56:03.650Z,5.40
2019-04-20T10:58:31.690Z,5.00
2019-04-20T11:00:59.754Z,5.10
2019-04-20T11:03:26.804Z,5.00
2019-04-20T11:05:53.735Z,5.08
2019-04-20T11:08:20.817Z,5.30
2019-04-20T11:10:58.977Z,4.85
2019-04-20T11:13:17.220Z,5.47
2019-04-20T11:15:44.381Z,5.85
2019-04-20T11:18:11.393Z,5.08
2019-04-20T11:20:39.421Z,4.90
2019-04-20T11:23:06.656Z,5.30
2019-04-20T11:25:34.423Z,4.45
2019-04-20T11:28:01.842Z,4.90
2019-04-20T11:30:29.969Z,4.92
2019-04-20T11:32:58.076Z,4.90
2019-04-20T11:35:31.184Z,5.53
2019-04-20T11:37:55.356Z,5.42
2019-04-20T11:40:23.543Z,4.40
2019-04-20T11:42:50.510Z,4.65
2019-04-20T11:45:18.440Z,5.10
2019-04-20T11:47:45.436Z,5.87
2019-04-20T11:50:13.706Z,4.87
2019-04-20T11:52:45.906Z,4.28
2019-04-20T11:55:10.511Z,5.15
2019-04-20T11:57:37.616Z,4.85
2019-04-20T12:00:05.490Z,4.60
2019-04-20T12:02:42.552Z,4.92
2019-04-20T12:05:22.039Z,4.67
2019-04-20T12:07:53.153Z,4.97
2019-04-20T12:10:23.648Z,5.03
2019-04-20T12:12:52.196Z,4.60
2019-04-20T12:15:18.838Z,5.08
2019-04-20T12:17:45.793Z,4.80
2019-04-20T12:20:12.920Z,4.92
2019-04-20T12:22:40.093Z,5.10
2019-04-20T12:25:07.942Z,4.62
2019-04-20T12:27:34.959Z,4.58
2019-04-20T12:30:02.111Z,4.78
2019-04-20T12:32:35.278Z,5.50
2019-04-20T12:34:58.261Z,4.65
2019-04-20T12:37:25.334Z,4.50
2019-04-20T12:39:53.274Z,4.85
2019-04-20T12:42:21.193Z,4.55
2019-04-20T12:44:48.129Z,4.62
2019-04-20T12:47:15.044Z,4.22
2019-04-20T12:49:43.121Z,4.70
2019-04-20T12:52:10.439Z,4.50
2019-04-20T12:54:39.967Z,5.15
2019-04-20T12:57:06.764Z,4.08
2019-04-20T12:59:33.723Z,4.12
2019-04-20T13:02:01.607Z,4.05
2019-04-20T13:04:30.071Z,4.33
2019-04-20T13:06:57.673Z,4.35
2019-04-20T13:09:30.636Z,4.25
2019-04-20T13:12:06.993Z,4.20
2019-04-20T13:15:02.375Z,4.70
2019-04-20T13:17:30.482Z,4.53
2019-04-20T13:19:57.524Z,4.60
2019-04-20T13:22:25.350Z,4.72
2019-04-20T13:24:52.837Z,5.15
2019-04-20T13:27:20.871Z,4.15
2019-04-20T13:29:50.773Z,4.28
2019-04-20T13:32:18.116Z,4.33
2019-04-20T13:34:44.998Z,4.03
2019-04-20T13:37:11.948Z,3.87
2019-04-20T13:39:38.796Z,4.30
2019-04-20T13:42:12.257Z,3.87
2019-04-20T13:44:34.939Z,4.55
2019-04-20T13:47:03.080Z,4.08
2019-04-20T13:49:31.246Z,4.12
2019-04-20T13:51:59.048Z,4.20
2019-04-20T13:54:29.881Z,4.33
2019-04-20T13:56:59.640Z,4.15
2019-04-20T13:59:37.743Z,3.70
2019-04-20T14:02:20.520Z,3.98
2019-04-20T14:04:54.844Z,4.30
2019-04-20T14:07:23.801Z,3.85
2019-04-20T14:09:51.194Z,4.67
2019-04-20T14:12:25.079Z,3.98
2019-04-20T14:14:47.019Z,4.00
2019-04-20T14:17:15.055Z,4.05
2019-04-20T14:19:43.154Z,4.10
2019-04-20T14:22:10.434Z,3.83
2019-04-20T14:24:37.615Z,4.12
2019-04-20T14:27:04.592Z,3.90
2019-04-20T14:29:32.527Z,3.47
2019-04-20T14:32:01.525Z,3.70
2019-04-20T14:34:29.037Z,3.45
2019-04-20T14:36:57.122Z,3.37
2019-04-20T14:39:24.574Z,3.65
2019-04-20T14:41:52.017Z,4.03
2019-04-20T14:44:19.608Z,3.55
2019-04-20T14:46:47.545Z,4.15
2019-04-20T14:49:14.820Z,3.83
2019-04-20T14:51:41.835Z,3.60
2019-04-20T14:54:09.659Z,3.55
2019-04-20T14:56:37.762Z,3.77
2019-04-20T14:59:15.557Z,3.72
2019-04-20T15:01:48.479Z,3.95
2019-04-20T15:04:18.646Z,4.03
2019-04-20T15:06:44.523Z,4.15
2019-04-20T15:09:12.840Z,3.90
2019-04-20T15:11:41.667Z,3.92
2019-04-20T15:14:09.045Z,3.87
2019-04-20T15:16:36.173Z,4.12
2019-04-20T15:19:25.679Z,4.12
2019-04-20T15:21:55.626Z,4.12
2019-04-20T15:24:23.767Z,4.03
2019-04-20T15:26:52.095Z,3.25
2019-04-20T15:29:20.179Z,4.40
2019-04-20T15:31:48.139Z,4.30
2019-04-20T15:34:15.343Z,4.75
2019-04-20T15:36:42.393Z,4.45
2019-04-20T15:39:09.441Z,4.65
2019-04-20T15:41:36.655Z,4.10
2019-04-20T15:44:04.266Z,4.35
2019-04-20T15:46:33.502Z,4.80
2019-04-20T15:49:00.248Z,4.10
2019-04-20T15:51:27.958Z,4.80
2019-04-20T15:53:55.607Z,4.05
2019-04-20T15:56:22.745Z,3.77
2019-04-20T15:58:50.431Z,4.60
2019-04-20T16:01:18.715Z,3.80
2019-04-20T16:03:53.384Z,4.25
2019-04-20T16:06:21.233Z,4.05
2019-04-20T16:08:52.302Z,4.08
2019-04-20T16:11:19.483Z,4.08
2019-04-20T16:13:50.059Z,3.70
2019-04-20T16:16:16.187Z,4.12
2019-04-20T16:18:43.410Z,4.30
2019-04-20T16:21:16.429Z,3.72
2019-04-20T16:23:43.911Z,3.90
2019-04-20T16:26:31.585Z,4.37
2019-04-20T16:28:59.688Z,4.30
2019-04-20T16:31:26.889Z,3.33
2019-04-20T16:33:56.886Z,4.20
2019-04-20T16:36:22.945Z,3.47
2019-04-20T16:38:51.106Z,4.20
2019-04-20T16:41:18.290Z,5.42
2019-04-20T16:43:46.741Z,5.58
2019-04-20T16:46:17.906Z,6.58
2019-04-20T16:48:44.200Z,5.67
2019-04-20T16:51:11.152Z,5.53
2019-04-20T16:53:39.524Z,4.70
2019-04-20T16:56:06.678Z,4.33
2019-04-20T16:58:35.805Z,4.03
2019-04-20T17:01:05.628Z,4.17
2019-04-20T17:03:48.883Z,4.00
2019-04-20T17:06:02.321Z,4.53
2019-04-20T17:08:29.237Z,4.15
2019-04-20T17:10:56.166Z,4.40
2019-04-20T17:13:35.272Z,3.75
2019-04-20T17:15:52.066Z,3.60
2019-04-20T17:18:19.330Z,3.95
2019-04-20T17:20:46.596Z,3.90
2019-04-20T17:23:13.547Z,4.15
2019-04-20T17:25:41.810Z,3.98
2019-04-20T17:28:22.681Z,4.17
2019-04-20T17:31:09.212Z,4.28
2019-04-20T17:33:58.979Z,4.72
2019-04-20T17:36:24.357Z,4.30
2019-04-20T17:38:53.945Z,5.45
2019-04-20T17:41:39.164Z,5.53
2019-04-20T17:44:07.152Z,6.45
2019-04-20T17:46:28.756Z,5.35
2019-04-20T17:48:59.705Z,4.92
2019-04-20T17:51:34.398Z,4.97
2019-04-20T17:54:06.390Z,4.30
2019-04-20T17:56:36.278Z,4.00
2019-04-20T17:59:04.056Z,4.70
2019-04-20T18:02:13.120Z,4.80
2019-04-20T18:05:15.950Z,5.05
2019-04-20T18:07:39.474Z,5.83
2019-04-20T18:10:02.963Z,4.58
2019-04-20T18:12:23.188Z,4.80
2019-04-20T18:14:57.386Z,4.70
2019-04-20T18:17:49.608Z,4.90
2019-04-20T18:20:05.194Z,4.90
2019-04-20T18:22:33.980Z,4.70
2019-04-20T18:25:20.907Z,5.00
2019-04-20T18:27:50.352Z,3.92
2019-04-20T18:30:16.102Z,4.22
2019-04-20T18:32:33.596Z,4.62
2019-04-20T18:35:08.495Z,4.67
2019-04-20T18:37:36.528Z,4.60
2019-04-20T18:40:10.725Z,4.22
2019-04-20T18:42:38.852Z,4.35
2019-04-20T18:45:25.329Z,3.98
2019-04-20T18:47:49.663Z,4.33
2019-04-20T18:50:10.792Z,4.22
2019-04-20T18:52:31.536Z,4.58
2019-04-20T18:54:59.559Z,4.17
2019-04-20T18:57:29.648Z,4.15
2019-04-20T18:59:57.229Z,3.85
2019-04-20T19:02:27.928Z,3.72
2019-04-20T19:04:56.971Z,4.28
2019-04-20T19:07:23.643Z,4.75
2019-04-20T19:09:55.271Z,5.50
2019-04-20T19:12:28.478Z,4.78
2019-04-20T19:15:30.457Z,4.95
2019-04-20T19:18:00.938Z,6.70
2019-04-20T19:20:24.776Z,5.25
2019-04-20T19:22:52.372Z,4.72
2019-04-20T19:25:27.387Z,5.40
2019-04-20T19:27:53.772Z,4.97
2019-04-20T19:30:27.535Z,5.95
2019-04-20T19:33:05.022Z,6.33
2019-04-20T19:35:30.793Z,7.62
2019-04-20T19:37:56.178Z,5.35
2019-04-20T19:40:24.718Z,4.70
2019-04-20T19:42:54.564Z,4.90
2019-04-20T19:45:38.214Z,4.50
2019-04-20T19:47:56.941Z,4.83
2019-04-20T19:50:36.755Z,5.00
2019-04-20T19:53:05.766Z,4.92
2019-04-20T19:55:25.948Z,5.10
2019-04-20T19:57:50.970Z,5.25
2019-04-20T20:00:06.450Z,5.33
2019-04-20T20:02:35.960Z,5.63
2019-04-20T20:05:08.704Z,4.93
2019-04-20T20:07:38.865Z,4.73
2019-04-20T20:10:07.774Z,4.93
2019-04-20T20:12:33.650Z,5.27
2019-04-20T20:15:01.682Z,5.50
2019-04-20T20:17:48.140Z,5.40
2019-04-20T20:20:27.500Z,4.97
2019-04-20T20:22:34.231Z,5.20
2019-04-20T20:24:55.075Z,5.40
2019-04-20T20:27:31.445Z,4.80
2019-04-20T20:29:59.499Z,5.20
2019-04-20T20:32:38.895Z,5.03
2019-04-20T20:34:56.078Z,4.60
2019-04-20T20:37:25.411Z,5.20
2019-04-20T20:39:53.861Z,4.57
2019-04-20T20:42:28.249Z,5.17
2019-04-20T20:44:53.860Z,5.30
2019-04-20T20:47:38.279Z,4.83
2019-04-20T20:50:07.971Z,5.40
2019-04-20T20:52:27.707Z,5.43
2019-04-20T20:54:49.785Z,5.77
2019-04-20T20:57:13.246Z,5.63
2019-04-20T20:59:48.036Z,5.33
2019-04-20T21:02:12.724Z,6.17
2019-04-20T21:04:35.336Z,5.03
2019-04-20T21:07:02.680Z,5.33
2019-04-20T21:09:31.234Z,5.67
2019-04-20T21:12:03.440Z,5.67
2019-04-20T21:14:31.139Z,5.40
2019-04-20T21:17:02.913Z,5.87
2019-04-20T21:19:45.339Z,5.90
2019-04-20T21:22:02.989Z,5.40
2019-04-20T21:24:27.250Z,5.30
2019-04-20T21:26:55.979Z,6.10
2019-04-20T21:29:32.804Z,5.37
2019-04-20T21:32:01.837Z,5.63
2019-04-20T21:34:23.632Z,6.00
2019-04-20T21:36:56.175Z,5.47
2019-04-20T21:39:31.365Z,5.70
2019-04-20T21:41:56.053Z,6.63
2019-04-20T21:44:24.377Z,6.60
2019-04-20T21:46:51.150Z,6.20
2019-04-20T21:49:33.543Z,6.60
2019-04-20T21:51:50.324Z,6.67
2019-04-20T21:54:12.112Z,6.40
2019-04-20T21:56:48.905Z,6.13
2019-04-20T21:59:19.131Z,6.13
2019-04-20T22:01:39.756Z,6.30
2019-04-20T22:04:06.057Z,6.77
2019-04-20T22:06:34.252Z,6.70
2019-04-20T22:09:04.025Z,6.60
2019-04-20T22:11:30.056Z,7.50
2019-04-20T22:13:57.439Z,6.40
2019-04-20T22:16:31.297Z,7.50
2019-04-20T22:19:10.318Z,6.53
2019-04-20T22:21:31.180Z,7.03
2019-04-20T22:24:04.294Z,6.63
2019-04-20T22:26:30.054Z,6.73
2019-04-20T22:28:50.023Z,6.50
2019-04-20T22:31:18.342Z,6.60
2019-04-20T22:33:46.850Z,6.40
2019-04-20T22:36:14.935Z,6.93
2019-04-20T22:39:07.234Z,6.63
2019-04-20T22:41:38.572Z,7.30
2019-04-20T22:44:11.547Z,6.17
2019-04-20T22:46:37.591Z,6.57
2019-04-20T22:49:22.245Z,7.07
2019-04-20T22:51:44.863Z,6.87
2019-04-20T22:54:17.562Z,6.60
2019-04-20T22:56:43.726Z,7.07
2019-04-20T22:59:07.397Z,6.87
2019-04-20T23:01:38.771Z,6.93
2019-04-20T23:03:57.024Z,6.67
2019-04-20T23:06:25.264Z,7.23
2019-04-20T23:08:58.562Z,6.90
2019-04-20T23:11:26.958Z,6.73
2019-04-20T23:13:52.030Z,6.73
2019-04-20T23:16:19.113Z,6.87
2019-04-20T23:18:46.391Z,7.33
2019-04-20T23:21:16.105Z,7.20
2019-04-20T23:23:43.603Z,6.77
2019-04-20T23:26:11.256Z,7.37
2019-04-20T23:28:46.893Z,7.03
2019-04-20T23:31:15.218Z,6.77
2019-04-20T23:33:38.087Z,7.47
2019-04-20T23:36:06.761Z,6.87
2019-04-20T23:38:34.751Z,7.27
2019-04-20T23:41:02.039Z,7.10
2019-04-20T23:43:40.500Z,7.43
2019-04-20T23:46:24.653Z,6.57
2019-04-20T23:49:16.990Z,6.83
2019-04-20T23:51:59.247Z,7.80
2019-04-20T23:54:12.857Z,7.33
2019-04-20T23:56:35.408Z,6.87
2019-04-20T23:59:02.443Z,7.83
